createdAt,value
2022-10-17T00:00:56.081Z,26.22
2022-10-17T00:03:23.187Z,26.20
2022-10-17T00:05:51.637Z,26.23
2022-10-17T00:08:19.304Z,26.19
2022-10-17T00:10:54.932Z,26.16
2022-10-17T00:13:22.070Z,26.20
2022-10-17T00:15:49.187Z,26.17
2022-10-17T00:18:16.281Z,26.10
2022-10-17T00:20:43.583Z,26.12
2022-10-17T00:23:12.052Z,26.15
2022-10-17T00:25:39.167Z,26.09
2022-10-17T00:28:06.520Z,26.08
2022-10-17T00:30:33.671Z,26.11
2022-10-17T00:33:00.756Z,26.12
2022-10-17T00:35:28.062Z,26.14
2022-10-17T00:37:55.180Z,26.13
2022-10-17T00:40:24.004Z,26.13
2022-10-17T00:42:51.197Z,26.10
2022-10-17T00:45:23.052Z,26.09
2022-10-17T00:47:54.537Z,26.10
2022-10-17T00:50:22.356Z,26.12
2022-10-17T00:52:50.258Z,26.15
2022-10-17T00:55:22.993Z,26.11
2022-10-17T00:57:52.745Z,26.12
2022-10-17T01:00:20.635Z,26.10
2022-10-17T01:03:06.857Z,26.09
2022-10-17T01:05:34.269Z,26.08
2022-10-17T01:08:02.047Z,26.05
2022-10-17T01:10:34.904Z,26.02
2022-10-17T01:13:11.522Z,26.01
2022-10-17T01:15:56.457Z,26.02
2022-10-17T01:18:36.797Z,25.99
2022-10-17T01:21:28.299Z,25.99
2022-10-17T01:24:33.724Z,26.03
2022-10-17T01:27:27.600Z,26.03
2022-10-17T01:30:11.583Z,26.01
2022-10-17T01:32:47.416Z,26.02
2022-10-17T01:35:22.305Z,26.06
2022-10-17T01:37:58.995Z,26.04
2022-10-17T01:40:32.870Z,26.06
2022-10-17T01:43:07.517Z,26.04
2022-10-17T01:45:41.704Z,26.07
2022-10-17T01:48:16.233Z,26.04
2022-10-17T01:50:48.721Z,26.03
2022-10-17T01:53:22.178Z,26.00
2022-10-17T01:55:52.407Z,25.97
2022-10-17T01:58:24.870Z,25.95
2022-10-17T02:00:53.705Z,25.95
2022-10-17T02:03:24.341Z,25.96
2022-10-17T02:05:51.494Z,25.94
2022-10-17T02:08:26.357Z,25.92
2022-10-17T02:10:58.083Z,25.90
2022-10-17T02:13:38.109Z,25.98
2022-10-17T02:16:17.080Z,25.95
2022-10-17T02:19:14.842Z,25.98
2022-10-17T02:21:49.092Z,25.99
2022-10-17T02:24:21.731Z,25.96
2022-10-17T02:26:58.686Z,25.96
2022-10-17T02:29:31.049Z,25.95
2022-10-17T02:32:02.956Z,25.97
2022-10-17T02:34:36.574Z,25.95
2022-10-17T02:37:06.945Z,25.97
2022-10-17T02:39:36.260Z,25.92
2022-10-17T02:42:07.235Z,25.92
2022-10-17T02:44:37.479Z,25.95
2022-10-17T02:47:11.452Z,25.92
2022-10-17T02:49:42.910Z,25.91
2022-10-17T02:52:14.486Z,25.89
2022-10-17T02:54:46.540Z,25.89
2022-10-17T02:57:18.925Z,25.88
2022-10-17T02:59:47.451Z,25.87
2022-10-17T03:02:14.608Z,25.83
2022-10-17T03:04:44.504Z,25.81
2022-10-17T03:07:11.801Z,25.84
2022-10-17T03:09:39.079Z,25.84
2022-10-17T03:12:06.238Z,25.87
2022-10-17T03:14:33.422Z,25.88
2022-10-17T03:17:00.678Z,25.85
2022-10-17T03:19:27.816Z,25.86
2022-10-17T03:21:56.297Z,25.87
2022-10-17T03:24:23.392Z,25.88
2022-10-17T03:26:50.492Z,25.86
2022-10-17T03:29:17.630Z,25.86
2022-10-17T03:31:44.736Z,25.87
2022-10-17T03:34:11.831Z,25.85
2022-10-17T03:36:38.992Z,25.83
2022-10-17T03:39:07.444Z,25.84
2022-10-17T03:41:34.566Z,25.84
2022-10-17T03:44:01.696Z,25.82
2022-10-17T03:46:28.812Z,25.83
2022-10-17T03:48:55.916Z,25.80
2022-10-17T03:51:23.046Z,25.78
2022-10-17T03:53:50.205Z,25.78
2022-10-17T03:56:20.073Z,25.76
2022-10-17T03:58:47.580Z,25.76
2022-10-17T04:01:15.966Z,25.77
2022-10-17T04:03:43.343Z,25.83
2022-10-17T04:06:12.857Z,25.82
2022-10-17T04:08:40.000Z,25.82
2022-10-17T04:11:08.392Z,25.81
2022-10-17T04:13:36.917Z,25.82
2022-10-17T04:16:06.613Z,25.83
2022-10-17T04:18:34.271Z,25.79
2022-10-17T04:21:01.934Z,25.77
2022-10-17T04:23:29.287Z,25.77
2022-10-17T04:25:56.996Z,25.81
2022-10-17T04:28:24.348Z,25.80
2022-10-17T04:30:57.453Z,25.76
2022-10-17T04:33:24.780Z,25.79
2022-10-17T04:35:59.190Z,25.63
2022-10-17T04:38:28.699Z,25.46
2022-10-17T04:40:57.612Z,25.40
2022-10-17T04:43:24.759Z,25.36
2022-10-17T04:45:51.845Z,25.29
2022-10-17T04:48:20.735Z,25.23
2022-10-17T04:50:53.771Z,25.14
2022-10-17T04:53:20.929Z,25.15
2022-10-17T04:55:48.010Z,25.12
2022-10-17T04:58:15.196Z,25.02
2022-10-17T05:00:42.379Z,24.99
2022-10-17T05:03:09.673Z,24.86
2022-10-17T05:05:39.615Z,24.82
2022-10-17T05:08:07.148Z,24.83
2022-10-17T05:10:36.628Z,24.86
2022-10-17T05:13:03.817Z,24.88
2022-10-17T05:15:30.928Z,24.89
2022-10-17T05:17:58.148Z,24.89
2022-10-17T05:20:26.130Z,24.87
2022-10-17T05:22:54.775Z,24.86
2022-10-17T05:25:21.994Z,24.86
2022-10-17T05:27:49.107Z,24.86
2022-10-17T05:30:16.208Z,24.84
2022-10-17T05:32:43.314Z,24.83
2022-10-17T05:35:10.504Z,24.78
2022-10-17T05:37:37.616Z,24.78
2022-10-17T05:40:07.401Z,24.84
2022-10-17T05:42:34.619Z,24.85
2022-10-17T05:45:01.756Z,24.85
2022-10-17T05:47:29.050Z,24.82
2022-10-17T05:49:56.348Z,24.91
2022-10-17T05:52:23.445Z,24.92
2022-10-17T05:54:50.547Z,24.94
2022-10-17T05:57:19.022Z,24.99
2022-10-17T05:59:46.139Z,24.95
2022-10-17T06:02:13.431Z,24.96
2022-10-17T06:04:40.586Z,24.95
2022-10-17T06:07:07.716Z,24.94
2022-10-17T06:09:35.017Z,24.94
2022-10-17T06:12:02.210Z,24.94
2022-10-17T06:14:30.661Z,24.93
2022-10-17T06:16:57.782Z,24.90
2022-10-17T06:19:25.081Z,24.94
2022-10-17T06:21:52.681Z,24.91
2022-10-17T06:24:20.225Z,24.94
2022-10-17T06:26:47.459Z,24.93
2022-10-17T06:29:14.797Z,24.92
2022-10-17T06:31:43.302Z,24.93
2022-10-17T06:34:10.635Z,24.91
2022-10-17T06:36:37.738Z,24.93
2022-10-17T06:39:04.930Z,24.95
2022-10-17T06:41:32.066Z,24.95
2022-10-17T06:43:59.174Z,24.95
2022-10-17T06:46:26.290Z,24.99
2022-10-17T06:48:54.790Z,25.05
2022-10-17T06:51:21.953Z,25.05
2022-10-17T06:53:49.056Z,25.12
2022-10-17T06:56:16.167Z,25.15
2022-10-17T06:58:43.290Z,25.16
2022-10-17T07:01:12.467Z,25.20
2022-10-17T07:03:40.519Z,25.26
2022-10-17T07:06:09.533Z,25.26
2022-10-17T07:08:36.752Z,25.30
2022-10-17T07:11:09.470Z,25.30
2022-10-17T07:13:39.157Z,25.33
2022-10-17T07:16:07.014Z,25.33
2022-10-17T07:18:34.414Z,25.31
2022-10-17T07:21:01.562Z,25.31
2022-10-17T07:23:30.056Z,25.30
2022-10-17T07:26:00.280Z,25.25
2022-10-17T07:28:28.057Z,25.22
2022-10-17T07:30:55.241Z,25.25
2022-10-17T07:33:22.534Z,25.30
2022-10-17T07:35:49.652Z,25.31
2022-10-17T07:38:16.793Z,25.33
2022-10-17T07:40:45.254Z,25.37
2022-10-17T07:43:12.381Z,25.37
2022-10-17T07:45:41.081Z,25.35
2022-10-17T07:48:08.190Z,25.36
2022-10-17T07:50:35.317Z,25.38
2022-10-17T07:53:02.464Z,25.36
2022-10-17T07:55:29.580Z,25.34
2022-10-17T07:57:58.641Z,25.33
2022-10-17T08:00:25.896Z,25.32
2022-10-17T08:02:53.004Z,25.26
2022-10-17T08:05:20.110Z,25.26
2022-10-17T08:07:47.293Z,25.29
2022-10-17T08:10:15.873Z,25.25
2022-10-17T08:12:43.289Z,25.27
2022-10-17T08:15:11.894Z,25.21
2022-10-17T08:17:39.476Z,25.26
2022-10-17T08:20:07.086Z,25.35
2022-10-17T08:22:35.279Z,25.40
2022-10-17T08:25:02.416Z,25.44
2022-10-17T08:27:29.553Z,25.49
2022-10-17T08:29:56.668Z,25.47
2022-10-17T08:32:26.874Z,25.54
2022-10-17T08:34:55.235Z,25.60
2022-10-17T08:37:22.704Z,25.62
2022-10-17T08:39:49.981Z,25.62
2022-10-17T08:42:34.433Z,25.71
2022-10-17T08:45:05.697Z,25.89
2022-10-17T08:47:38.087Z,26.00
2022-10-17T08:50:10.490Z,26.00
2022-10-17T08:52:41.375Z,25.92
2022-10-17T08:55:16.131Z,25.90
2022-10-17T08:57:43.756Z,25.91
2022-10-17T09:00:16.918Z,25.99
2022-10-17T09:02:55.186Z,26.07
2022-10-17T09:05:30.703Z,26.14
2022-10-17T09:08:07.355Z,26.15
2022-10-17T09:10:44.110Z,26.19
2022-10-17T09:13:22.056Z,26.12
2022-10-17T09:16:16.302Z,26.12
2022-10-17T09:18:48.969Z,26.16
2022-10-17T09:21:21.366Z,26.21
2022-10-17T09:23:59.501Z,26.22
2022-10-17T09:26:37.477Z,26.28
2022-10-17T09:29:17.292Z,26.29
2022-10-17T09:31:49.162Z,26.28
2022-10-17T09:34:17.682Z,26.30
2022-10-17T09:36:44.779Z,26.36
2022-10-17T09:39:14.486Z,26.38
2022-10-17T09:41:46.636Z,26.48
2022-10-17T09:44:18.509Z,26.47
2022-10-17T09:47:00.655Z,26.51
2022-10-17T09:49:33.327Z,26.51
2022-10-17T09:52:01.730Z,26.50
2022-10-17T09:54:39.674Z,26.53
2022-10-17T09:57:09.014Z,26.50
2022-10-17T09:59:38.616Z,26.59
2022-10-17T10:02:15.699Z,26.60
2022-10-17T10:05:04.626Z,26.63
2022-10-17T10:07:35.647Z,26.65
2022-10-17T10:10:05.959Z,26.68
2022-10-17T10:12:35.362Z,26.75
2022-10-17T10:15:27.566Z,26.79
2022-10-17T10:17:54.674Z,26.76
2022-10-17T10:20:31.020Z,26.73
2022-10-17T10:23:06.657Z,26.77
2022-10-17T10:25:35.521Z,26.78
2022-10-17T10:28:10.719Z,26.81
2022-10-17T10:30:39.943Z,26.87
2022-10-17T10:33:11.704Z,26.90
2022-10-17T10:35:40.305Z,26.91
2022-10-17T10:38:10.764Z,26.93
2022-10-17T10:40:46.930Z,26.97
2022-10-17T10:43:24.055Z,27.00
2022-10-17T10:45:52.424Z,27.01
2022-10-17T10:48:22.953Z,27.06
2022-10-17T10:50:55.964Z,27.15
2022-10-17T10:53:35.228Z,27.15
2022-10-17T10:56:08.418Z,27.15
2022-10-17T10:58:44.696Z,27.18
2022-10-17T11:01:19.034Z,27.18
2022-10-17T11:03:54.724Z,27.18
2022-10-17T11:06:28.067Z,27.13
2022-10-17T11:09:11.385Z,27.09
2022-10-17T11:11:42.303Z,27.14
2022-10-17T11:14:16.203Z,27.14
2022-10-17T11:16:46.665Z,27.17
2022-10-17T11:19:23.718Z,27.22
2022-10-17T11:22:02.773Z,27.23
2022-10-17T11:24:35.913Z,27.25
2022-10-17T11:27:05.470Z,27.32
2022-10-17T11:29:34.510Z,27.34
2022-10-17T11:32:05.819Z,27.38
2022-10-17T11:34:37.915Z,27.41
2022-10-17T11:37:14.796Z,27.46
2022-10-17T11:42:18.220Z,27.49
2022-10-17T11:44:45.781Z,27.56
2022-10-17T11:47:23.319Z,27.61
2022-10-17T11:49:54.049Z,27.60
2022-10-17T11:55:23.422Z,27.50
2022-10-17T12:01:09.693Z,27.54
2022-10-17T12:03:49.601Z,27.56
2022-10-17T12:06:29.195Z,27.57
2022-10-17T12:09:07.753Z,27.63
2022-10-17T12:11:45.941Z,27.63
2022-10-17T12:14:36.231Z,27.60
2022-10-17T12:17:05.636Z,27.63
2022-10-17T12:19:35.326Z,27.62
2022-10-17T12:22:21.664Z,27.58
2022-10-17T12:24:59.420Z,27.59
2022-10-17T12:27:37.074Z,27.61
2022-10-17T12:30:15.269Z,27.66
2022-10-17T12:33:06.466Z,27.73
2022-10-17T12:35:35.887Z,27.72
2022-10-17T12:38:15.687Z,27.71
2022-10-17T12:40:56.014Z,27.63
2022-10-17T12:43:54.001Z,27.62
2022-10-17T12:46:57.201Z,27.65
2022-10-17T12:49:43.271Z,27.71
2022-10-17T12:55:25.664Z,27.76
2022-10-17T12:58:02.051Z,27.81
2022-10-17T13:00:36.194Z,27.81
2022-10-17T13:03:06.627Z,27.80
2022-10-17T13:05:37.134Z,27.78
2022-10-17T13:08:07.862Z,27.76
2022-10-17T13:10:40.664Z,27.78
2022-10-17T13:13:16.900Z,27.80
2022-10-17T13:15:46.851Z,27.77
2022-10-17T13:18:19.389Z,27.76
2022-10-17T13:20:59.135Z,27.79
2022-10-17T13:23:30.039Z,27.77
2022-10-17T13:26:22.056Z,27.82
2022-10-17T13:29:03.436Z,27.84
2022-10-17T13:31:32.932Z,27.84
2022-10-17T13:34:01.899Z,27.89
2022-10-17T13:36:31.196Z,27.85
2022-10-17T13:39:00.422Z,27.87
2022-10-17T13:41:35.767Z,27.89
2022-10-17T13:44:12.732Z,27.98
2022-10-17T13:46:40.478Z,28.12
2022-10-17T13:49:16.842Z,28.23
2022-10-17T13:51:45.990Z,28.29
2022-10-17T13:54:33.486Z,28.16
2022-10-17T13:57:02.098Z,28.29
2022-10-17T13:59:36.313Z,28.36
2022-10-17T14:02:03.688Z,28.40
2022-10-17T14:04:44.678Z,28.44
2022-10-17T14:07:34.212Z,28.51
2022-10-17T14:10:06.519Z,28.55
2022-10-17T14:12:34.553Z,28.57
2022-10-17T14:15:12.146Z,28.53
2022-10-17T14:17:39.916Z,28.53
2022-10-17T14:23:20.915Z,28.58
2022-10-17T14:25:43.216Z,28.60
2022-10-17T14:28:15.094Z,28.56
2022-10-17T14:30:56.192Z,28.53
2022-10-17T14:33:27.216Z,28.56
2022-10-17T14:35:57.011Z,28.56
2022-10-17T14:38:24.930Z,28.55
2022-10-17T14:41:00.305Z,28.58
2022-10-17T14:43:32.720Z,28.58
2022-10-17T14:46:02.283Z,28.57
2022-10-17T14:48:30.136Z,28.53
2022-10-17T14:51:07.979Z,28.53
2022-10-17T14:53:35.343Z,28.52
2022-10-17T14:56:04.861Z,28.42
2022-10-17T14:58:33.365Z,28.41
2022-10-17T15:01:02.232Z,28.44
2022-10-17T15:03:29.387Z,28.43
2022-10-17T15:05:56.685Z,28.44
2022-10-17T15:08:24.207Z,28.45
2022-10-17T15:10:51.753Z,28.45
2022-10-17T15:13:28.207Z,28.44
2022-10-17T15:15:56.102Z,28.45
2022-10-17T15:18:24.601Z,28.43
2022-10-17T15:20:59.627Z,28.35
2022-10-17T15:23:32.282Z,28.30
2022-10-17T15:25:59.383Z,28.30
2022-10-17T15:28:26.521Z,28.29
2022-10-17T15:30:53.690Z,28.24
2022-10-17T15:33:20.941Z,28.25
2022-10-17T15:35:49.779Z,28.19
2022-10-17T15:38:18.138Z,28.16
2022-10-17T15:40:45.267Z,28.11
2022-10-17T15:43:14.079Z,28.03
2022-10-17T15:45:43.315Z,28.02
2022-10-17T15:48:18.628Z,27.99
2022-10-17T15:50:45.816Z,27.99
2022-10-17T15:53:14.577Z,27.95
2022-10-17T15:55:41.679Z,27.93
2022-10-17T15:58:12.527Z,27.88
2022-10-17T16:00:39.949Z,27.89
2022-10-17T16:03:07.154Z,27.86
2022-10-17T16:05:34.307Z,27.77
2022-10-17T16:08:01.425Z,27.70
2022-10-17T16:10:29.976Z,27.63
2022-10-17T16:12:57.160Z,27.57
2022-10-17T16:15:25.744Z,27.49
2022-10-17T16:17:54.331Z,27.45
2022-10-17T16:20:22.014Z,27.40
2022-10-17T16:22:49.738Z,27.38
2022-10-17T16:25:19.631Z,27.35
2022-10-17T16:27:49.822Z,27.29
2022-10-17T16:30:17.496Z,27.25
2022-10-17T16:32:45.060Z,27.21
2022-10-17T16:35:17.756Z,27.18
2022-10-17T16:37:45.005Z,27.16
2022-10-17T16:40:12.376Z,27.13
2022-10-17T16:42:39.877Z,27.06
2022-10-17T16:45:10.049Z,27.07
2022-10-17T16:47:37.160Z,27.00
2022-10-17T16:50:04.524Z,26.98
2022-10-17T16:52:32.053Z,26.95
2022-10-17T16:54:59.357Z,26.94
2022-10-17T16:57:26.467Z,26.89
2022-10-17T16:59:53.563Z,26.87
2022-10-17T17:02:22.283Z,26.83
2022-10-17T17:04:49.441Z,26.77
2022-10-17T17:07:16.566Z,26.72
2022-10-17T17:09:43.692Z,26.68
2022-10-17T17:12:11.002Z,26.63
2022-10-17T17:14:38.893Z,26.62
2022-10-17T17:17:07.659Z,26.60
2022-10-17T17:19:40.781Z,26.55
2022-10-17T17:22:08.139Z,26.44
2022-10-17T17:24:35.290Z,26.48
2022-10-17T17:27:02.415Z,26.44
2022-10-17T17:29:29.646Z,26.47
2022-10-17T17:31:56.740Z,26.49
2022-10-17T17:34:23.924Z,26.48
2022-10-17T17:36:52.422Z,26.50
2022-10-17T17:39:19.577Z,26.54
2022-10-17T17:41:46.904Z,26.59
2022-10-17T17:44:16.679Z,26.60
2022-10-17T17:46:45.242Z,26.59
2022-10-17T17:49:12.671Z,26.61
2022-10-17T17:51:39.777Z,26.62
2022-10-17T17:54:08.416Z,26.59
2022-10-17T17:56:35.720Z,26.62
2022-10-17T17:59:03.592Z,26.62
2022-10-17T18:01:33.533Z,26.61
2022-10-17T18:04:00.725Z,26.61
2022-10-17T18:06:28.297Z,26.61
2022-10-17T18:08:57.297Z,26.63
2022-10-17T18:11:26.809Z,26.61
2022-10-17T18:13:54.645Z,26.63
2022-10-17T18:16:21.776Z,26.62
2022-10-17T18:18:49.683Z,26.60
2022-10-17T18:21:17.285Z,26.60
2022-10-17T18:23:46.348Z,26.59
2022-10-17T18:26:13.910Z,26.62
2022-10-17T18:28:43.896Z,26.67
2022-10-17T18:31:13.207Z,26.67
2022-10-17T18:33:40.340Z,26.64
2022-10-17T18:36:10.172Z,26.61
2022-10-17T18:38:37.623Z,26.61
2022-10-17T18:41:06.659Z,26.62
2022-10-17T18:43:35.560Z,26.63
2022-10-17T18:46:09.694Z,26.62
2022-10-17T18:48:40.700Z,26.63
2022-10-17T18:51:08.356Z,26.64
2022-10-17T18:53:39.395Z,26.61
2022-10-17T18:56:06.960Z,26.60
2022-10-17T18:58:34.152Z,26.59
2022-10-17T19:01:07.270Z,26.57
2022-10-17T19:03:34.464Z,26.58
2022-10-17T19:06:02.697Z,26.54
2022-10-17T19:08:30.389Z,26.60
2022-10-17T19:10:57.713Z,26.64
2022-10-17T19:13:24.807Z,26.64
2022-10-17T19:15:51.900Z,26.67
2022-10-17T19:18:20.391Z,26.66
2022-10-17T19:20:47.514Z,26.66
2022-10-17T19:23:14.615Z,26.67
2022-10-17T19:25:41.909Z,26.65
2022-10-17T19:28:09.014Z,26.60
2022-10-17T19:30:36.221Z,26.59
2022-10-17T19:33:03.457Z,26.61
2022-10-17T19:35:31.909Z,26.64
2022-10-17T19:37:59.189Z,26.63
2022-10-17T19:40:26.430Z,26.59
2022-10-17T19:42:53.534Z,26.57
2022-10-17T19:45:20.646Z,26.56
2022-10-17T19:47:47.920Z,26.59
2022-10-17T19:50:15.317Z,26.57
2022-10-17T19:52:43.809Z,26.58
2022-10-17T19:55:10.955Z,26.57
2022-10-17T19:57:38.110Z,26.59
2022-10-17T20:00:06.569Z,26.62
2022-10-17T20:02:33.675Z,26.63
2022-10-17T20:05:17.603Z,26.63
2022-10-17T20:07:46.879Z,26.64
2022-10-17T20:10:13.982Z,26.63
2022-10-17T20:12:41.154Z,26.60
2022-10-17T20:15:08.761Z,26.64
2022-10-17T20:17:35.909Z,26.60
2022-10-17T20:20:07.691Z,26.59
2022-10-17T20:22:36.119Z,26.62
2022-10-17T20:25:05.476Z,26.59
2022-10-17T20:27:32.892Z,26.57
2022-10-17T20:30:00.029Z,26.57
2022-10-17T20:32:27.283Z,26.57
2022-10-17T20:34:54.377Z,26.59
2022-10-17T20:37:21.599Z,26.58
2022-10-17T20:39:55.808Z,26.53
2022-10-17T20:42:33.751Z,26.54
2022-10-17T20:45:00.850Z,26.53
2022-10-17T20:47:40.511Z,26.59
2022-10-17T20:50:11.818Z,26.61
2022-10-17T20:52:38.926Z,26.60
2022-10-17T20:55:06.602Z,26.60
2022-10-17T20:57:35.160Z,26.61
2022-10-17T21:00:02.666Z,26.61
2022-10-17T21:02:29.776Z,26.59
2022-10-17T21:04:56.891Z,26.59
2022-10-17T21:07:24.004Z,26.58
2022-10-17T21:09:51.177Z,26.59
2022-10-17T21:12:26.214Z,26.58
2022-10-17T21:15:00.171Z,26.57
2022-10-17T21:17:27.394Z,26.56
2022-10-17T21:19:54.527Z,26.53
2022-10-17T21:22:21.839Z,26.49
2022-10-17T21:24:49.007Z,26.51
2022-10-17T21:27:18.984Z,26.50
2022-10-17T21:29:47.454Z,26.51
2022-10-17T21:32:31.802Z,26.53
2022-10-17T21:35:03.173Z,26.61
2022-10-17T21:37:30.288Z,26.57
2022-10-17T21:39:57.393Z,26.61
2022-10-17T21:42:24.551Z,26.58
2022-10-17T21:44:51.667Z,26.58
2022-10-17T21:47:22.284Z,26.56
2022-10-17T21:49:50.337Z,26.55
2022-10-17T21:52:17.485Z,26.51
2022-10-17T21:54:44.586Z,26.51
2022-10-17T21:57:11.753Z,26.52
2022-10-17T21:59:38.870Z,26.51
2022-10-17T22:02:06.069Z,26.47
2022-10-17T22:04:34.537Z,26.45
2022-10-17T22:07:01.660Z,26.42
2022-10-17T22:09:28.983Z,26.41
2022-10-17T22:11:57.031Z,26.39
2022-10-17T22:14:25.960Z,26.43
2022-10-17T22:16:53.525Z,26.43
2022-10-17T22:19:25.169Z,26.44
2022-10-17T22:21:54.488Z,26.41
2022-10-17T22:26:54.300Z,26.41
2022-10-17T22:29:21.490Z,26.43
2022-10-17T22:31:48.632Z,26.43
2022-10-17T22:34:17.068Z,26.41
2022-10-17T22:36:44.646Z,26.41
2022-10-17T22:39:13.301Z,26.39
2022-10-17T22:41:40.524Z,26.40
2022-10-17T22:44:07.901Z,26.37
2022-10-17T22:46:35.284Z,26.37
2022-10-17T22:49:02.506Z,26.32
2022-10-17T22:51:29.615Z,26.31
2022-10-17T22:53:56.880Z,26.32
2022-10-17T22:56:25.453Z,26.28
2022-10-17T22:58:52.567Z,26.32
2022-10-17T23:01:21.454Z,26.32
2022-10-17T23:03:49.121Z,26.32
2022-10-17T23:06:16.802Z,26.35
2022-10-17T23:08:44.638Z,26.40
2022-10-17T23:11:12.268Z,26.36
2022-10-17T23:13:41.026Z,26.38
2022-10-17T23:16:09.064Z,26.36
2022-10-17T23:18:37.158Z,26.38
2022-10-17T23:21:05.020Z,26.32
2022-10-17T23:23:32.167Z,26.35
2022-10-17T23:26:04.644Z,26.33
2022-10-17T23:28:31.771Z,26.30
2022-10-17T23:31:08.652Z,26.31
2022-10-17T23:33:35.754Z,26.33
2022-10-17T23:36:04.169Z,26.27
2022-10-17T23:38:31.421Z,26.27
2022-10-17T23:40:58.540Z,26.25
2022-10-17T23:43:25.653Z,26.24
2022-10-17T23:45:52.873Z,26.20
2022-10-17T23:48:21.306Z,26.20
2022-10-17T23:50:48.401Z,26.26
2022-10-17T23:53:15.704Z,26.25
2022-10-17T23:55:42.879Z,26.24
2022-10-17T23:58:09.976Z,26.23
